createdAt,value
2019-01-11T00:00:24.995Z,3.33
2019-01-11T00:01:05.169Z,2.87
2019-01-11T00:01:43.035Z,2.52
2019-01-11T00:02:15.490Z,2.75
2019-01-11T00:02:48.328Z,3.05
2019-01-11T00:03:20.780Z,2.62
2019-01-11T00:03:53.234Z,2.75
2019-01-11T00:04:25.685Z,3.20
2019-01-11T00:04:58.442Z,2.85
2019-01-11T00:05:30.901Z,2.98
2019-01-11T00:06:03.541Z,3.47
2019-01-11T00:06:36.040Z,3.70
2019-01-11T00:07:08.798Z,3.42
2019-01-11T00:07:41.601Z,3.20
2019-01-11T00:08:14.159Z,3.20
2019-01-11T00:08:46.636Z,3.50
2019-01-11T00:09:19.088Z,3.17
2019-01-11T00:09:51.543Z,3.12
2019-01-11T00:10:24.001Z,3.30
2019-01-11T00:10:56.475Z,3.70
2019-01-11T00:11:29.230Z,3.58
2019-01-11T00:12:01.702Z,3.47
2019-01-11T00:12:34.146Z,3.12
2019-01-11T00:13:06.623Z,3.40
2019-01-11T00:13:39.097Z,3.15
2019-01-11T00:14:11.718Z,3.98
2019-01-11T00:14:44.551Z,3.60
2019-01-11T00:15:17.008Z,3.55
2019-01-11T00:15:49.453Z,3.47
2019-01-11T00:16:21.901Z,3.87
2019-01-11T00:16:54.357Z,3.92
2019-01-11T00:17:26.859Z,2.92
2019-01-11T00:17:59.327Z,3.20
2019-01-11T00:18:31.787Z,3.50
2019-01-11T00:19:07.155Z,3.60
2019-01-11T00:19:39.618Z,3.85
2019-01-11T00:20:12.193Z,3.60
2019-01-11T00:20:44.663Z,3.12
2019-01-11T00:21:17.405Z,3.40
2019-01-11T00:21:50.207Z,3.05
2019-01-11T00:22:22.670Z,3.05
2019-01-11T00:22:55.153Z,3.15
2019-01-11T00:23:28.026Z,3.45
2019-01-11T00:24:00.495Z,2.95
2019-01-11T00:24:33.205Z,3.17
2019-01-11T00:25:06.678Z,3.05
2019-01-11T00:25:39.126Z,3.42
2019-01-11T00:26:11.573Z,3.33
2019-01-11T00:26:44.030Z,3.22
2019-01-11T00:27:16.844Z,2.95
2019-01-11T00:27:49.290Z,2.87
2019-01-11T00:28:21.769Z,2.83
2019-01-11T00:28:54.230Z,3.12
2019-01-11T00:29:26.697Z,2.90
2019-01-11T00:29:59.149Z,3.30
2019-01-11T00:30:31.606Z,3.52
2019-01-11T00:31:04.360Z,2.92
2019-01-11T00:31:36.825Z,3.27
2019-01-11T00:32:09.291Z,3.00
2019-01-11T00:32:41.737Z,3.15
2019-01-11T00:33:14.194Z,2.87
2019-01-11T00:33:46.699Z,3.30
2019-01-11T00:34:19.150Z,3.25
2019-01-11T00:34:51.617Z,2.72
2019-01-11T00:35:24.387Z,3.17
2019-01-11T00:35:56.846Z,3.40
2019-01-11T00:36:29.296Z,3.83
2019-01-11T00:37:01.763Z,2.95
2019-01-11T00:37:34.210Z,3.22
2019-01-11T00:38:06.660Z,3.12
2019-01-11T00:38:39.117Z,3.80
2019-01-11T00:39:11.629Z,3.27
2019-01-11T00:39:44.077Z,3.70
2019-01-11T00:40:16.548Z,3.02
2019-01-11T00:40:49.009Z,3.30
2019-01-11T00:41:21.721Z,3.20
2019-01-11T00:41:54.190Z,3.40
2019-01-11T00:42:26.645Z,3.22
2019-01-11T00:42:59.447Z,3.08
2019-01-11T00:43:31.914Z,3.30
2019-01-11T00:44:04.714Z,3.60
2019-01-11T00:44:37.631Z,3.05
2019-01-11T00:45:10.247Z,3.15
2019-01-11T00:45:42.995Z,2.83
2019-01-11T00:46:15.458Z,3.10
2019-01-11T00:46:47.927Z,3.27
2019-01-11T00:47:20.656Z,3.52
2019-01-11T00:47:53.423Z,3.98
2019-01-11T00:48:25.884Z,3.27
2019-01-11T00:48:58.333Z,3.70
2019-01-11T00:49:30.781Z,3.65
2019-01-11T00:50:04.177Z,3.10
2019-01-11T00:50:36.622Z,4.30
2019-01-11T00:51:09.088Z,3.47
2019-01-11T00:51:41.558Z,3.58
2019-01-11T00:52:14.313Z,3.55
2019-01-11T00:52:47.103Z,3.55
2019-01-11T00:53:19.872Z,3.22
2019-01-11T00:53:52.323Z,3.80
2019-01-11T00:54:24.769Z,3.20
2019-01-11T00:54:57.245Z,3.87
2019-01-11T00:55:30.386Z,3.10
2019-01-11T00:56:02.833Z,4.30
2019-01-11T00:56:35.281Z,3.80
2019-01-11T00:57:07.883Z,3.87
2019-01-11T00:57:40.341Z,3.72
2019-01-11T00:58:12.825Z,3.95
2019-01-11T00:58:46.004Z,3.65
2019-01-11T00:59:18.733Z,4.15
2019-01-11T00:59:51.477Z,3.30
2019-01-11T01:00:24.379Z,3.33
2019-01-11T01:00:57.128Z,3.70
2019-01-11T01:01:29.859Z,4.20
2019-01-11T01:02:02.712Z,3.72
2019-01-11T01:02:35.178Z,4.10
2019-01-11T01:03:07.632Z,3.85
2019-01-11T01:03:40.108Z,4.10
2019-01-11T01:04:12.572Z,4.00
2019-01-11T01:04:45.358Z,3.40
2019-01-11T01:05:18.372Z,3.52
2019-01-11T01:05:50.821Z,4.00
2019-01-11T01:06:23.314Z,3.72
2019-01-11T01:06:56.093Z,3.95
2019-01-11T01:07:28.547Z,4.15
2019-01-11T01:08:00.998Z,4.00
2019-01-11T01:08:34.253Z,4.10
2019-01-11T01:09:08.094Z,3.75
2019-01-11T01:09:40.545Z,4.65
2019-01-11T01:10:13.583Z,4.00
2019-01-11T01:10:46.037Z,4.15
2019-01-11T01:11:18.524Z,4.33
2019-01-11T01:11:51.299Z,3.67
2019-01-11T01:12:23.873Z,4.15
2019-01-11T01:12:56.649Z,3.87
2019-01-11T01:13:29.107Z,4.75
2019-01-11T01:14:01.564Z,4.25
2019-01-11T01:14:34.009Z,4.00
2019-01-11T01:15:09.405Z,4.80
2019-01-11T01:15:41.861Z,4.42
2019-01-11T01:16:14.827Z,4.10
2019-01-11T01:16:47.277Z,4.22
2019-01-11T01:17:19.761Z,4.40
2019-01-11T01:17:52.634Z,4.45
2019-01-11T01:18:25.077Z,3.75
2019-01-11T01:18:57.540Z,4.30
2019-01-11T01:19:29.994Z,4.37
2019-01-11T01:20:03.657Z,3.95
2019-01-11T01:20:36.123Z,3.75
2019-01-11T01:21:08.666Z,3.75
2019-01-11T01:21:41.127Z,3.90
2019-01-11T01:22:13.826Z,3.47
2019-01-11T01:22:46.315Z,4.50
2019-01-11T01:23:19.133Z,4.05
2019-01-11T01:23:51.593Z,3.65
2019-01-11T01:24:24.053Z,4.12
2019-01-11T01:24:56.505Z,4.85
2019-01-11T01:25:28.948Z,4.00
2019-01-11T01:26:01.594Z,3.80
2019-01-11T01:26:34.073Z,3.85
2019-01-11T01:27:06.516Z,4.10
2019-01-11T01:27:39.663Z,4.03
2019-01-11T01:28:12.817Z,3.80
2019-01-11T01:28:45.375Z,3.80
2019-01-11T01:29:18.155Z,4.00
2019-01-11T01:29:51.334Z,4.20
2019-01-11T01:30:23.781Z,4.30
2019-01-11T01:30:57.054Z,3.77
2019-01-11T01:31:29.523Z,4.10
2019-01-11T01:32:01.982Z,3.77
2019-01-11T01:32:34.426Z,4.28
2019-01-11T01:33:06.891Z,3.95
2019-01-11T01:33:39.382Z,3.95
2019-01-11T01:34:11.886Z,4.00
2019-01-11T01:34:44.304Z,4.20
2019-01-11T01:35:16.740Z,4.70
2019-01-11T01:35:49.206Z,3.42
2019-01-11T01:36:21.671Z,3.83
2019-01-11T01:36:54.451Z,4.67
2019-01-11T01:37:26.907Z,4.62
2019-01-11T01:37:59.633Z,3.77
2019-01-11T01:38:32.360Z,3.70
2019-01-11T01:39:06.790Z,3.77
2019-01-11T01:39:39.281Z,4.05
2019-01-11T01:40:12.215Z,4.15
2019-01-11T01:40:45.029Z,4.20
2019-01-11T01:41:17.511Z,4.08
2019-01-11T01:41:50.269Z,3.40
2019-01-11T01:42:22.725Z,3.37
2019-01-11T01:42:55.519Z,4.03
2019-01-11T01:43:27.979Z,4.03
2019-01-11T01:44:00.441Z,3.67
2019-01-11T01:44:33.250Z,3.62
2019-01-11T01:45:07.719Z,3.98
2019-01-11T01:45:40.171Z,4.15
2019-01-11T01:46:12.632Z,4.20
2019-01-11T01:46:45.384Z,3.62
2019-01-11T01:47:17.826Z,3.90
2019-01-11T01:47:50.261Z,3.52
2019-01-11T01:48:22.988Z,3.50
2019-01-11T01:48:55.449Z,4.10
2019-01-11T01:49:28.434Z,3.90
2019-01-11T01:50:01.300Z,4.30
2019-01-11T01:50:34.049Z,3.80
2019-01-11T01:51:06.820Z,4.47
2019-01-11T01:51:39.597Z,3.85
2019-01-11T01:52:12.055Z,4.12
2019-01-11T01:52:44.511Z,3.33
2019-01-11T01:53:16.975Z,3.52
2019-01-11T01:53:49.438Z,3.87
2019-01-11T01:54:21.885Z,4.05
2019-01-11T01:54:54.706Z,3.80
2019-01-11T01:55:27.870Z,4.20
2019-01-11T01:56:00.325Z,3.80
2019-01-11T01:56:32.772Z,3.90
2019-01-11T01:57:05.228Z,4.05
2019-01-11T01:57:38.027Z,3.65
2019-01-11T01:58:10.870Z,3.62
2019-01-11T01:58:43.787Z,3.70
2019-01-11T01:59:16.250Z,3.40
2019-01-11T01:59:49.077Z,4.12
2019-01-11T02:00:21.537Z,3.58
2019-01-11T02:00:54.010Z,3.50
2019-01-11T02:01:26.466Z,3.30
2019-01-11T02:01:58.915Z,4.60
2019-01-11T02:02:31.379Z,4.65
2019-01-11T02:03:03.932Z,3.60
2019-01-11T02:03:36.692Z,3.67
2019-01-11T02:04:09.145Z,3.72
2019-01-11T02:04:41.610Z,3.92
2019-01-11T02:05:14.360Z,3.95
2019-01-11T02:05:47.153Z,3.95
2019-01-11T02:06:19.637Z,4.15
2019-01-11T02:06:52.387Z,4.15
2019-01-11T02:07:25.162Z,4.03
2019-01-11T02:07:57.619Z,3.80
2019-01-11T02:08:30.490Z,3.83
2019-01-11T02:09:06.031Z,3.92
2019-01-11T02:09:38.469Z,3.55
2019-01-11T02:10:12.061Z,3.92
2019-01-11T02:10:44.834Z,4.15
2019-01-11T02:11:17.286Z,3.90
2019-01-11T02:11:49.783Z,3.70
2019-01-11T02:12:22.527Z,3.70
2019-01-11T02:12:54.983Z,3.83
2019-01-11T02:13:28.212Z,3.98
2019-01-11T02:14:01.035Z,4.15
2019-01-11T02:14:33.488Z,3.75
2019-01-11T02:15:07.384Z,4.42
2019-01-11T02:15:39.849Z,3.92
2019-01-11T02:16:12.610Z,4.12
2019-01-11T02:16:45.061Z,3.77
2019-01-11T02:17:18.259Z,3.98
2019-01-11T02:17:50.709Z,3.90
2019-01-11T02:18:23.477Z,4.12
2019-01-11T02:18:56.256Z,4.70
2019-01-11T02:19:32.916Z,3.65
2019-01-11T02:20:04.977Z,3.72
2019-01-11T02:20:37.707Z,4.20
2019-01-11T02:21:10.176Z,3.55
2019-01-11T02:21:42.991Z,4.00
2019-01-11T02:22:15.821Z,3.98
2019-01-11T02:22:48.301Z,4.00
2019-01-11T02:23:20.752Z,3.87
2019-01-11T02:23:53.210Z,3.47
2019-01-11T02:24:25.973Z,3.75
2019-01-11T02:24:59.070Z,4.60
2019-01-11T02:25:31.525Z,3.95
2019-01-11T02:26:03.995Z,3.92
2019-01-11T02:26:36.737Z,4.12
2019-01-11T02:27:09.189Z,4.10
2019-01-11T02:27:41.966Z,3.75
2019-01-11T02:28:14.449Z,4.10
2019-01-11T02:28:47.183Z,3.98
2019-01-11T02:29:19.645Z,3.50
2019-01-11T02:29:52.120Z,4.00
2019-01-11T02:30:24.579Z,4.00
2019-01-11T02:30:57.665Z,3.85
2019-01-11T02:31:30.122Z,3.52
2019-01-11T02:32:03.342Z,3.60
2019-01-11T02:32:35.796Z,3.50
2019-01-11T02:33:08.601Z,3.20
2019-01-11T02:33:41.094Z,4.00
2019-01-11T02:34:13.550Z,3.75
2019-01-11T02:34:46.019Z,3.35
2019-01-11T02:35:18.781Z,3.37
2019-01-11T02:35:51.542Z,3.60
2019-01-11T02:36:24.135Z,4.20
2019-01-11T02:36:56.591Z,3.75
2019-01-11T02:37:29.060Z,3.45
2019-01-11T02:38:01.903Z,3.50
2019-01-11T02:38:34.362Z,3.87
2019-01-11T02:39:07.219Z,3.85
2019-01-11T02:39:39.688Z,5.17
2019-01-11T02:40:12.388Z,3.40
2019-01-11T02:40:44.841Z,3.80
2019-01-11T02:41:17.619Z,3.77
2019-01-11T02:41:50.072Z,3.67
2019-01-11T02:42:22.523Z,4.50
2019-01-11T02:42:54.988Z,3.72
2019-01-11T02:43:28.142Z,4.10
2019-01-11T02:44:00.597Z,3.40
2019-01-11T02:44:33.095Z,4.20
2019-01-11T02:45:06.466Z,4.60
2019-01-11T02:45:38.913Z,4.12
2019-01-11T02:46:11.750Z,4.22
2019-01-11T02:46:44.215Z,4.58
2019-01-11T02:47:16.665Z,4.30
2019-01-11T02:47:49.124Z,4.30
2019-01-11T02:48:21.565Z,4.45
2019-01-11T02:48:54.015Z,4.25
2019-01-11T02:49:26.486Z,3.70
2019-01-11T02:49:59.617Z,3.72
2019-01-11T02:50:32.092Z,3.58
2019-01-11T02:51:04.549Z,4.08
2019-01-11T02:51:37.002Z,4.47
2019-01-11T02:52:09.469Z,4.45
2019-01-11T02:52:42.046Z,4.50
2019-01-11T02:53:14.907Z,4.33
2019-01-11T02:53:47.337Z,4.53
2019-01-11T02:54:20.219Z,4.60
2019-01-11T02:54:52.687Z,4.90
2019-01-11T02:55:25.183Z,4.25
2019-01-11T02:55:57.639Z,4.58
2019-01-11T02:56:30.378Z,4.05
2019-01-11T02:57:02.843Z,3.50
2019-01-11T02:57:35.298Z,4.30
2019-01-11T02:58:07.758Z,3.95
2019-01-11T02:58:40.197Z,4.22
2019-01-11T02:59:12.666Z,4.28
2019-01-11T02:59:45.100Z,4.00
2019-01-11T03:00:19.159Z,3.80
2019-01-11T03:00:51.637Z,4.50
2019-01-11T03:01:24.077Z,4.72
2019-01-11T03:01:56.541Z,4.22
2019-01-11T03:02:28.985Z,4.30
2019-01-11T03:03:01.452Z,4.85
2019-01-11T03:03:33.912Z,4.35
2019-01-11T03:04:06.366Z,4.10
2019-01-11T03:04:38.838Z,4.22
2019-01-11T03:05:12.231Z,4.30
2019-01-11T03:05:44.692Z,4.60
2019-01-11T03:06:17.174Z,4.72
2019-01-11T03:06:49.631Z,4.28
2019-01-11T03:07:22.107Z,4.53
2019-01-11T03:07:54.556Z,4.70
2019-01-11T03:08:27.489Z,4.37
2019-01-11T03:08:59.928Z,4.35
2019-01-11T03:09:32.390Z,3.90
2019-01-11T03:10:07.127Z,4.10
2019-01-11T03:10:39.895Z,4.92
2019-01-11T03:11:12.344Z,5.03
2019-01-11T03:11:45.227Z,4.08
2019-01-11T03:12:17.681Z,4.97
2019-01-11T03:12:50.144Z,4.95
2019-01-11T03:13:22.593Z,4.85
2019-01-11T03:13:55.057Z,4.42
2019-01-11T03:14:27.818Z,4.25
2019-01-11T03:15:00.683Z,4.55
2019-01-11T03:15:33.278Z,5.50
2019-01-11T03:16:05.734Z,5.28
2019-01-11T03:16:38.207Z,5.20
2019-01-11T03:17:10.691Z,4.87
2019-01-11T03:17:43.744Z,5.15
2019-01-11T03:18:16.198Z,6.15
2019-01-11T03:18:48.666Z,5.20
2019-01-11T03:19:21.119Z,5.00
2019-01-11T03:19:53.576Z,4.35
2019-01-11T03:20:26.036Z,4.58
2019-01-11T03:20:58.789Z,4.45
2019-01-11T03:21:31.634Z,5.65
2019-01-11T03:22:04.111Z,4.55
2019-01-11T03:22:36.600Z,5.05
2019-01-11T03:23:09.045Z,4.65
2019-01-11T03:23:41.803Z,4.90
2019-01-11T03:24:14.361Z,4.90
2019-01-11T03:24:46.817Z,5.20
2019-01-11T03:25:19.277Z,5.10
2019-01-11T03:25:51.751Z,5.10
2019-01-11T03:26:24.189Z,4.97
2019-01-11T03:26:56.651Z,5.40
2019-01-11T03:27:29.097Z,4.90
2019-01-11T03:28:01.598Z,5.03
2019-01-11T03:28:34.380Z,5.35
2019-01-11T03:29:06.838Z,5.53
2019-01-11T03:29:39.297Z,5.28
2019-01-11T03:30:14.563Z,4.47
2019-01-11T03:30:47.002Z,6.30
2019-01-11T03:31:34.424Z,5.62
2019-01-11T03:32:06.860Z,5.50
2019-01-11T03:32:39.309Z,5.72
2019-01-11T03:33:11.794Z,4.97
2019-01-11T03:33:44.245Z,5.80
2019-01-11T03:34:16.710Z,5.12
2019-01-11T03:35:12.765Z,6.25
2019-01-11T03:35:46.113Z,5.55
2019-01-11T03:36:18.580Z,5.70
2019-01-11T03:36:51.299Z,5.50
2019-01-11T03:37:23.769Z,5.53
2019-01-11T03:37:56.577Z,6.10
2019-01-11T03:38:29.317Z,5.40
2019-01-11T03:39:01.920Z,5.87
2019-01-11T03:39:34.366Z,6.20
2019-01-11T03:40:08.552Z,5.70
2019-01-11T03:40:41.403Z,6.03
2019-01-11T03:41:13.855Z,5.90
2019-01-11T03:41:57.866Z,6.40
2019-01-11T03:42:30.699Z,5.83
2019-01-11T03:43:03.494Z,5.50
2019-01-11T03:43:36.314Z,6.62
2019-01-11T03:44:08.787Z,5.58
2019-01-11T03:44:41.537Z,6.33
2019-01-11T03:45:15.649Z,6.40
2019-01-11T03:45:48.389Z,6.10
2019-01-11T03:46:20.848Z,6.35
2019-01-11T03:46:54.042Z,5.53
2019-01-11T03:47:26.490Z,5.78
2019-01-11T03:47:59.346Z,6.10
2019-01-11T03:48:32.240Z,6.12
2019-01-11T03:49:04.726Z,6.05
2019-01-11T03:49:37.482Z,6.45
2019-01-11T03:50:11.171Z,6.42
2019-01-11T03:50:43.632Z,6.58
2019-01-11T03:51:16.104Z,6.50
2019-01-11T03:51:48.550Z,6.90
2019-01-11T03:52:21.183Z,6.80
2019-01-11T03:52:53.657Z,6.58
2019-01-11T03:53:26.469Z,5.83
2019-01-11T03:53:59.312Z,6.33
2019-01-11T03:54:31.793Z,5.95
2019-01-11T03:55:06.401Z,6.20
2019-01-11T03:55:38.876Z,6.30
2019-01-11T03:56:11.310Z,6.15
2019-01-11T03:56:43.775Z,6.67
2019-01-11T03:57:16.239Z,6.70
2019-01-11T03:57:48.691Z,7.05
2019-01-11T03:58:21.134Z,6.40
2019-01-11T03:58:53.573Z,7.03
2019-01-11T03:59:26.039Z,6.25
2019-01-11T03:59:58.533Z,6.70
2019-01-11T04:00:30.981Z,6.45
2019-01-11T04:01:04.041Z,6.50
2019-01-11T04:01:36.757Z,6.97
2019-01-11T04:02:09.583Z,6.50
2019-01-11T04:02:42.035Z,6.58
2019-01-11T04:03:14.493Z,7.05
2019-01-11T04:03:46.948Z,6.62
2019-01-11T04:04:19.414Z,6.70
2019-01-11T04:04:51.865Z,6.58
2019-01-11T04:05:24.731Z,7.15
2019-01-11T04:05:57.170Z,7.42
2019-01-11T04:06:29.998Z,6.12
2019-01-11T04:07:02.458Z,5.87
2019-01-11T04:07:34.911Z,7.20
2019-01-11T04:08:07.370Z,6.87
2019-01-11T04:08:40.164Z,6.90
2019-01-11T04:09:12.624Z,7.17
2019-01-11T04:09:45.401Z,7.12
2019-01-11T04:10:22.450Z,6.72
2019-01-11T04:10:55.216Z,6.53
2019-01-11T04:11:27.989Z,7.10
2019-01-11T04:12:00.441Z,7.00
2019-01-11T04:12:33.165Z,7.17
2019-01-11T04:13:05.621Z,7.75
2019-01-11T04:13:38.103Z,6.90
2019-01-11T04:14:10.911Z,7.33
2019-01-11T04:14:43.645Z,7.87
2019-01-11T04:15:16.876Z,6.72
2019-01-11T04:15:49.322Z,6.87
2019-01-11T04:16:22.272Z,7.17
2019-01-11T04:16:54.834Z,7.35
2019-01-11T04:17:27.297Z,7.70
2019-01-11T04:18:37.690Z,6.78
2019-01-11T04:19:14.709Z,6.83
2019-01-11T04:19:47.170Z,7.28
2019-01-11T04:20:19.637Z,7.20
2019-01-11T04:20:52.093Z,8.05
2019-01-11T04:21:24.914Z,6.90
2019-01-11T04:22:12.098Z,7.25
2019-01-11T04:22:50.580Z,7.58
2019-01-11T04:23:23.172Z,7.65
2019-01-11T04:23:55.903Z,7.60
2019-01-11T04:24:30.530Z,8.00
2019-01-11T04:25:04.719Z,7.08
2019-01-11T04:25:42.092Z,8.35
2019-01-11T04:26:14.547Z,6.75
2019-01-11T04:26:46.997Z,8.18
2019-01-11T04:27:19.854Z,7.62
2019-01-11T04:27:52.322Z,7.65
2019-01-11T04:28:25.163Z,7.65
2019-01-11T04:28:57.626Z,7.28
2019-01-11T04:29:30.102Z,7.40
2019-01-11T04:30:04.559Z,7.40
2019-01-11T04:30:37.009Z,7.20
2019-01-11T04:31:09.461Z,8.35
2019-01-11T04:31:41.927Z,7.65
2019-01-11T04:32:14.387Z,7.90
2019-01-11T04:32:46.978Z,7.78
2019-01-11T04:33:19.439Z,8.15
2019-01-11T04:33:52.612Z,8.23
2019-01-11T04:34:25.369Z,7.03
2019-01-11T04:34:57.836Z,8.60
2019-01-11T04:35:30.305Z,8.30
2019-01-11T04:36:02.761Z,8.28
2019-01-11T04:36:35.531Z,7.65
2019-01-11T04:37:08.294Z,8.15
2019-01-11T04:37:40.783Z,8.50
2019-01-11T04:38:13.282Z,7.87
2019-01-11T04:38:45.734Z,7.50
2019-01-11T04:39:18.184Z,8.30
2019-01-11T04:39:50.633Z,8.25
2019-01-11T04:40:23.372Z,7.72
2019-01-11T04:40:56.121Z,7.80
2019-01-11T04:41:28.597Z,8.33
2019-01-11T04:42:01.072Z,7.95
2019-01-11T04:42:33.666Z,7.75
2019-01-11T04:43:06.114Z,8.20
2019-01-11T04:43:38.955Z,8.13
2019-01-11T04:44:11.414Z,8.50
2019-01-11T04:44:43.882Z,7.15
2019-01-11T04:45:16.841Z,8.20
2019-01-11T04:45:49.302Z,8.38
2019-01-11T04:46:21.750Z,9.28
2019-01-11T04:46:54.226Z,8.05
2019-01-11T04:47:26.687Z,8.38
2019-01-11T04:47:59.145Z,8.95
2019-01-11T04:48:31.611Z,8.75
2019-01-11T04:49:04.112Z,9.73
2019-01-11T04:49:36.563Z,8.80
2019-01-11T04:50:10.649Z,9.20
2019-01-11T04:50:43.144Z,9.35
2019-01-11T04:51:15.601Z,9.28
2019-01-11T04:51:48.056Z,9.60
2019-01-11T04:52:20.919Z,9.58
2019-01-11T04:52:53.355Z,10.40
2019-01-11T04:53:25.805Z,9.50
2019-01-11T04:53:58.270Z,9.30
2019-01-11T04:54:30.741Z,9.05
2019-01-11T04:55:03.574Z,9.30
2019-01-11T04:55:36.022Z,9.15
2019-01-11T04:56:08.474Z,10.15
2019-01-11T04:56:40.935Z,9.05
2019-01-11T04:57:13.401Z,8.78
2019-01-11T04:57:45.865Z,9.20
2019-01-11T04:58:18.317Z,8.43
2019-01-11T04:58:50.763Z,9.45
2019-01-11T04:59:23.215Z,9.15
2019-01-11T04:59:55.715Z,9.15
2019-01-11T05:00:28.163Z,9.48
2019-01-11T05:01:00.623Z,8.95
2019-01-11T05:01:33.088Z,9.98
2019-01-11T05:02:05.674Z,9.08
2019-01-11T05:02:38.470Z,9.97
2019-01-11T05:03:11.038Z,9.45
2019-01-11T05:03:43.494Z,9.93
2019-01-11T05:04:15.961Z,9.60
2019-01-11T05:04:48.715Z,10.32
2019-01-11T05:05:21.193Z,9.90
2019-01-11T05:05:54.238Z,9.70
2019-01-11T05:06:27.134Z,9.58
2019-01-11T05:06:59.941Z,9.50
2019-01-11T05:07:32.408Z,10.53
2019-01-11T05:08:05.142Z,9.93
2019-01-11T05:08:37.585Z,10.80
2019-01-11T05:09:10.044Z,10.53
2019-01-11T05:09:42.493Z,9.98
2019-01-11T05:10:17.123Z,9.68
2019-01-11T05:10:49.615Z,10.08
2019-01-11T05:11:22.076Z,9.63
2019-01-11T05:11:56.629Z,10.53
2019-01-11T05:12:29.109Z,10.05
2019-01-11T05:13:21.096Z,9.90
2019-01-11T05:13:56.399Z,9.45
2019-01-11T05:14:28.837Z,9.85
2019-01-11T05:15:01.566Z,10.23
2019-01-11T05:15:34.022Z,10.53
2019-01-11T05:16:06.507Z,11.43
2019-01-11T05:16:39.616Z,10.65
2019-01-11T05:17:12.750Z,11.73
2019-01-11T05:17:45.528Z,11.35
2019-01-11T05:18:17.990Z,11.08
2019-01-11T05:18:50.449Z,10.80
2019-01-11T05:19:23.204Z,11.45
2019-01-11T05:19:56.310Z,10.70
2019-01-11T05:20:28.761Z,11.12
2019-01-11T05:21:01.219Z,11.08
2019-01-11T05:21:33.710Z,10.35
2019-01-11T05:22:06.171Z,10.58
2019-01-11T05:22:38.873Z,11.68
2019-01-11T05:23:11.694Z,10.50
2019-01-11T05:23:44.102Z,11.08
2019-01-11T05:24:16.851Z,11.97
2019-01-11T05:24:49.592Z,11.55
2019-01-11T05:25:22.325Z,12.40
2019-01-11T05:25:56.445Z,11.30
2019-01-11T05:26:28.909Z,11.20
2019-01-11T05:27:01.415Z,11.68
2019-01-11T05:27:34.587Z,11.28
2019-01-11T05:28:07.064Z,11.18
2019-01-11T05:28:39.516Z,11.35
2019-01-11T05:29:11.961Z,12.65
2019-01-11T05:29:44.749Z,12.50
2019-01-11T05:30:18.361Z,12.60
2019-01-11T05:30:50.875Z,11.65
2019-01-11T05:31:23.607Z,11.73
2019-01-11T05:31:56.350Z,11.53
2019-01-11T05:32:28.826Z,12.35
2019-01-11T05:33:01.269Z,12.73
2019-01-11T05:33:33.726Z,12.93
2019-01-11T05:34:06.173Z,11.88
2019-01-11T05:34:38.894Z,12.70
2019-01-11T05:35:11.346Z,12.37
2019-01-11T05:35:43.819Z,13.30
2019-01-11T05:36:16.270Z,12.60
2019-01-11T05:36:48.723Z,11.97
2019-01-11T05:37:21.436Z,11.83
2019-01-11T05:37:53.950Z,13.00
2019-01-11T05:38:26.361Z,12.80
2019-01-11T05:38:59.075Z,11.57
2019-01-11T05:39:31.517Z,13.00
2019-01-11T05:40:06.251Z,12.20
2019-01-11T05:40:38.697Z,12.65
2019-01-11T05:41:11.167Z,12.43
2019-01-11T05:41:43.605Z,11.65
2019-01-11T05:42:16.373Z,11.90
2019-01-11T05:42:49.149Z,11.75
2019-01-11T05:43:21.617Z,12.28
2019-01-11T05:43:54.066Z,12.45
2019-01-11T05:44:27.103Z,12.43
2019-01-11T05:44:59.935Z,13.25
2019-01-11T05:45:32.360Z,12.20
2019-01-11T05:46:04.823Z,12.23
2019-01-11T05:46:37.279Z,12.45
2019-01-11T05:47:09.750Z,12.90
2019-01-11T05:47:42.537Z,12.78
2019-01-11T05:48:15.407Z,12.55
2019-01-11T05:48:48.167Z,12.73
2019-01-11T05:49:20.622Z,13.48
2019-01-11T05:49:53.078Z,12.80
2019-01-11T05:50:25.530Z,12.80
2019-01-11T05:50:57.969Z,13.28
2019-01-11T05:51:30.447Z,14.00
2019-01-11T05:52:03.266Z,12.80
2019-01-11T05:52:35.771Z,12.23
2019-01-11T05:53:08.237Z,13.88
2019-01-11T05:53:40.705Z,13.22
2019-01-11T05:54:13.206Z,12.88
2019-01-11T05:54:46.004Z,14.00
2019-01-11T05:55:36.726Z,13.43
2019-01-11T05:56:11.659Z,12.95
2019-01-11T05:56:44.118Z,14.00
2019-01-11T05:57:16.833Z,12.95
2019-01-11T05:58:07.404Z,13.68
2019-01-11T05:58:50.391Z,13.32
2019-01-11T05:59:22.877Z,13.15
2019-01-11T05:59:55.597Z,14.07
2019-01-11T06:00:28.054Z,13.62
2019-01-11T06:01:00.769Z,13.20
2019-01-11T06:01:33.254Z,13.25
2019-01-11T06:02:05.831Z,14.68
2019-01-11T06:02:38.791Z,13.90
2019-01-11T06:03:11.347Z,14.13
2019-01-11T06:03:43.807Z,13.38
2019-01-11T06:04:38.551Z,12.93
2019-01-11T06:05:11.710Z,13.15
2019-01-11T06:05:44.294Z,14.28
2019-01-11T06:06:16.759Z,13.85
2019-01-11T06:07:16.255Z,12.90
2019-01-11T06:07:55.039Z,12.80
2019-01-11T06:08:28.432Z,13.70
2019-01-11T06:09:00.870Z,13.65
2019-01-11T06:09:33.663Z,13.30
2019-01-11T06:10:08.735Z,15.05
2019-01-11T06:10:41.445Z,14.70
2019-01-11T06:11:13.906Z,13.35
2019-01-11T06:11:46.375Z,13.78
2019-01-11T06:12:19.223Z,15.13
2019-01-11T06:12:51.941Z,14.15
2019-01-11T06:13:24.662Z,15.13
2019-01-11T06:13:57.394Z,14.30
2019-01-11T06:14:29.837Z,14.70
2019-01-11T06:15:02.301Z,13.95
2019-01-11T06:15:34.785Z,15.20
2019-01-11T06:16:07.958Z,14.55
2019-01-11T06:16:40.413Z,15.20
2019-01-11T06:17:13.152Z,14.28
2019-01-11T06:17:45.593Z,15.43
2019-01-11T06:18:18.059Z,14.75
2019-01-11T06:18:50.517Z,15.38
2019-01-11T06:19:23.368Z,15.70
2019-01-11T06:19:55.817Z,15.30
2019-01-11T06:20:30.455Z,15.30
2019-01-11T06:21:02.719Z,14.13
2019-01-11T06:21:35.187Z,15.85
2019-01-11T06:22:07.649Z,15.45
2019-01-11T06:22:40.098Z,15.80
2019-01-11T06:23:12.557Z,14.95
2019-01-11T06:23:45.018Z,15.25
2019-01-11T06:24:17.479Z,16.87
2019-01-11T06:24:50.216Z,15.58
2019-01-11T06:25:22.961Z,14.58
2019-01-11T06:25:55.690Z,16.23
2019-01-11T06:26:28.162Z,16.25
2019-01-11T06:27:00.900Z,16.35
2019-01-11T06:27:35.068Z,14.78
2019-01-11T06:28:07.541Z,14.05
2019-01-11T06:28:40.276Z,15.40
2019-01-11T06:29:12.728Z,17.05
2019-01-11T06:29:45.178Z,16.57
2019-01-11T06:30:17.646Z,18.00
2019-01-11T06:30:50.801Z,16.20
2019-01-11T06:31:23.271Z,15.40
2019-01-11T06:31:56.258Z,15.88
2019-01-11T06:32:28.998Z,17.57
2019-01-11T06:33:01.450Z,16.25
2019-01-11T06:33:33.896Z,16.55
2019-01-11T06:34:06.357Z,16.30
2019-01-11T06:34:38.819Z,15.93
2019-01-11T06:35:11.626Z,16.27
2019-01-11T06:35:44.342Z,14.58
2019-01-11T06:36:16.789Z,14.87
2019-01-11T06:36:49.521Z,16.25
2019-01-11T06:37:22.014Z,17.50
2019-01-11T06:37:54.965Z,15.75
2019-01-11T06:38:27.438Z,17.37
2019-01-11T06:38:59.882Z,17.50
2019-01-11T06:39:32.328Z,16.80
2019-01-11T06:40:05.172Z,16.80
2019-01-11T06:40:37.886Z,15.13
2019-01-11T06:41:10.353Z,15.98
2019-01-11T06:41:48.251Z,17.23
2019-01-11T06:42:26.556Z,17.57
2019-01-11T06:43:03.525Z,17.23
2019-01-11T06:43:33.293Z,17.65
2019-01-11T06:44:05.741Z,16.20
2019-01-11T06:44:39.003Z,15.75
2019-01-11T06:45:11.723Z,16.52
2019-01-11T06:45:44.174Z,15.72
2019-01-11T06:46:16.949Z,15.93
2019-01-11T06:46:49.668Z,17.35
2019-01-11T06:47:22.317Z,16.05
2019-01-11T06:47:54.807Z,17.42
2019-01-11T06:48:41.161Z,16.65
2019-01-11T06:49:13.613Z,16.67
2019-01-11T06:49:46.096Z,16.62
2019-01-11T06:50:18.559Z,17.65
2019-01-11T06:50:51.009Z,18.12
2019-01-11T06:51:23.513Z,18.15
2019-01-11T06:51:55.956Z,18.20
2019-01-11T06:52:28.398Z,16.75
2019-01-11T06:53:00.870Z,18.32
2019-01-11T06:53:33.335Z,18.65
2019-01-11T06:54:05.797Z,18.82
2019-01-11T06:54:38.391Z,17.50
2019-01-11T06:55:10.982Z,17.67
2019-01-11T06:55:43.435Z,18.90
2019-01-11T06:56:15.889Z,17.42
2019-01-11T06:56:48.339Z,17.40
2019-01-11T06:57:21.057Z,18.35
2019-01-11T06:57:53.505Z,16.93
2019-01-11T06:58:25.984Z,17.85
2019-01-11T06:58:58.457Z,16.30
2019-01-11T06:59:30.898Z,16.12
2019-01-11T07:00:06.853Z,16.75
2019-01-11T07:00:39.318Z,15.50
2019-01-11T07:01:11.780Z,16.82
2019-01-11T07:01:44.533Z,15.65
2019-01-11T07:02:17.002Z,17.80
2019-01-11T07:02:49.793Z,17.82
2019-01-11T07:03:22.267Z,17.00
2019-01-11T07:03:54.760Z,15.75
2019-01-11T07:04:27.570Z,17.52
2019-01-11T07:05:00.013Z,16.30
2019-01-11T07:05:32.462Z,15.18
2019-01-11T07:06:04.923Z,16.87
2019-01-11T07:06:37.379Z,15.68
2019-01-11T07:07:10.226Z,15.98
2019-01-11T07:07:42.791Z,16.93
2019-01-11T07:08:15.600Z,16.42
2019-01-11T07:08:48.394Z,15.60
2019-01-11T07:09:20.869Z,15.85
2019-01-11T07:09:54.207Z,15.68
2019-01-11T07:10:26.657Z,16.27
2019-01-11T07:10:59.101Z,16.17
2019-01-11T07:11:31.560Z,15.38
2019-01-11T07:12:03.997Z,16.95
2019-01-11T07:12:36.457Z,17.05
2019-01-11T07:13:09.322Z,16.05
2019-01-11T07:13:42.135Z,14.98
2019-01-11T07:14:14.592Z,16.12
2019-01-11T07:14:47.234Z,17.05
2019-01-11T07:15:19.686Z,18.30